Time;durP1;ratioP1;P1;durP2;ratioP2;P2;SDS_P1;SDS_P2;PMS_P1;PMS_P2;Temp;Humidity;BMP_temperature;BMP_pressure;BME280_temperature;BME280_humidity;BME280_pressure;Samples;Min_cycle;Max_cycle;Signal;HPM_P1;HPM_P2
2023/06/30 00:00:08;;;;;;;;;7.00;7.00;;;;;19.80;67.45;99571.22;5096418;28;8864;-59
2023/06/30 00:02:36;;;;;;;;;7.60;6.60;;;;;19.76;67.87;99570.78;5095931;28;8825;-59
2023/06/30 00:05:04;;;;;;;;;4.80;4.80;;;;;19.74;68.09;99578.25;5095633;28;9510;-60
2023/06/30 00:07:32;;;;;;;;;5.60;5.40;;;;;19.71;68.18;99573.19;5094924;28;8829;-59
2023/06/30 00:10:00;;;;;;;;;8.20;7.60;;;;;19.66;67.67;99577.50;5094784;28;8833;-59
2023/06/30 00:12:28;;;;;;;;;9.60;9.60;;;;;19.63;68.23;99577.84;5093299;28;8833;-59
2023/06/30 00:14:56;;;;;;;;;8.80;8.80;;;;;19.58;68.36;99572.19;5095407;28;8821;-58
2023/06/30 00:17:24;;;;;;;;;8.80;8.20;;;;;19.54;68.72;99563.63;5095325;28;8837;-58
2023/06/30 00:19:52;;;;;;;;;6.20;6.20;;;;;19.50;68.92;99558.78;5095019;28;8833;-58
2023/06/30 00:22:21;;;;;;;;;9.40;9.20;;;;;19.45;68.53;99547.69;5094727;28;8805;-59
2023/06/30 00:24:49;;;;;;;;;9.80;9.80;;;;;19.40;68.64;99556.38;5095553;28;8841;-59
2023/06/30 00:27:17;;;;;;;;;7.00;6.60;;;;;19.37;68.89;99564.84;5095597;28;8830;-59
2023/06/30 00:29:44;;;;;;;;;4.20;4.00;;;;;19.33;68.95;99562.69;5095256;28;8856;-58
2023/06/30 00:32:12;;;;;;;;;9.20;8.20;;;;;19.29;69.03;99558.69;5095216;28;8875;-58
2023/06/30 00:34:40;;;;;;;;;7.20;6.40;;;;;19.25;68.79;99563.63;5095407;28;9529;-59
2023/06/30 00:37:07;;;;;;;;;9.20;9.00;;;;;19.23;68.91;99562.13;5095265;28;8999;-58
2023/06/30 00:39:35;;;;;;;;;3.00;3.00;;;;;19.22;69.01;99564.03;5094415;28;8853;-58
2023/06/30 00:42:03;;;;;;;;;8.80;7.20;;;;;19.20;69.02;99557.94;5095306;28;8835;-59
2023/06/30 00:44:31;;;;;;;;;8.80;8.80;;;;;19.18;69.49;99565.38;5095364;28;8849;-59
2023/06/30 00:47:00;;;;;;;;;9.00;8.00;;;;;19.13;69.24;99561.56;5097307;28;9613;-59
2023/06/30 00:49:28;;;;;;;;;12.80;10.00;;;;;19.07;69.70;99565.84;5098881;28;8829;-59
2023/06/30 00:51:56;;;;;;;;;6.80;6.60;;;;;19.00;70.13;99566.75;5098418;28;8845;-58
2023/06/30 00:54:24;;;;;;;;;9.60;9.20;;;;;18.92;69.64;99573.09;5099501;28;9564;-59
2023/06/30 00:56:52;;;;;;;;;3.80;3.60;;;;;18.86;69.97;99570.25;5099150;28;8825;-60
2023/06/30 00:59:19;;;;;;;;;9.40;9.00;;;;;18.80;70.39;99562.91;5099011;28;8872;-60
2023/06/30 01:01:47;;;;;;;;;9.80;8.20;;;;;18.76;70.57;99561.59;5099183;28;8853;-60
2023/06/30 01:04:16;;;;;;;;;11.20;9.00;;;;;18.69;70.76;99569.59;5099271;28;8872;-58
2023/06/30 01:06:44;;;;;;;;;10.00;9.00;;;;;18.64;70.64;99568.44;5099103;28;8855;-59
2023/06/30 01:09:12;;;;;;;;;9.00;7.00;;;;;18.59;70.51;99569.00;5098813;28;8817;-59
2023/06/30 01:11:40;;;;;;;;;7.00;7.00;;;;;18.54;71.17;99565.16;5098238;28;8825;-59
2023/06/30 01:14:08;;;;;;;;;9.20;8.20;;;;;18.50;71.22;99570.09;5097890;28;8849;-57
2023/06/30 01:16:36;;;;;;;;;9.00;7.00;;;;;18.45;71.08;99567.09;5098059;28;8958;-57
2023/06/30 01:19:04;;;;;;;;;9.00;9.00;;;;;18.41;71.71;99573.88;5097999;28;8833;-59
2023/06/30 01:21:31;;;;;;;;;7.00;7.00;;;;;18.36;71.19;99565.47;5098808;28;8840;-59
2023/06/30 01:23:59;;;;;;;;;7.40;6.00;;;;;18.29;71.30;99559.09;5098697;28;8848;-59
2023/06/30 01:26:27;;;;;;;;;7.00;7.00;;;;;18.22;71.47;99570.78;5097683;28;8867;-61
2023/06/30 01:28:55;;;;;;;;;7.40;6.60;;;;;18.13;71.70;99566.47;5098693;28;8999;-57
2023/06/30 01:31:23;;;;;;;;;8.60;6.40;;;;;18.06;72.06;99563.66;5098065;28;8840;-57
2023/06/30 01:33:51;;;;;;;;;7.40;7.00;;;;;18.03;72.03;99568.56;5098606;28;8933;-58
2023/06/30 01:36:18;;;;;;;;;6.00;6.00;;;;;17.97;72.51;99567.41;5098265;28;8861;-59
2023/06/30 01:38:46;;;;;;;;;7.80;6.80;;;;;17.95;72.39;99566.75;5098070;28;8926;-59
2023/06/30 01:41:14;;;;;;;;;9.00;9.00;;;;;17.92;72.33;99572.47;5098644;28;8955;-59
2023/06/30 01:43:41;;;;;;;;;7.00;6.40;;;;;17.87;72.46;99579.44;5098532;28;8844;-57
2023/06/30 01:46:09;;;;;;;;;6.40;6.40;;;;;17.81;72.44;99572.91;5097902;28;8829;-59
2023/06/30 01:48:36;;;;;;;;;6.80;6.80;;;;;17.79;72.79;99582.16;5097843;28;8999;-58
2023/06/30 01:51:04;;;;;;;;;10.40;9.60;;;;;17.73;72.39;99577.47;5098487;28;8833;-58
2023/06/30 01:53:32;;;;;;;;;6.20;6.20;;;;;17.64;72.33;99578.53;5097393;28;8883;-59
2023/06/30 01:56:00;;;;;;;;;7.00;6.00;;;;;17.56;73.28;99574.06;5098073;28;8851;-59
2023/06/30 01:58:28;;;;;;;;;4.20;3.40;;;;;17.48;73.19;99568.66;5096731;28;8836;-59
2023/06/30 02:00:55;;;;;;;;;6.00;6.00;;;;;17.43;72.72;99578.28;5097182;28;8836;-58
2023/06/30 02:03:23;;;;;;;;;6.80;6.20;;;;;17.37;73.45;99570.91;5098111;28;8817;-58
2023/06/30 02:05:51;;;;;;;;;6.00;4.40;;;;;17.31;73.56;99569.72;5097336;28;8833;-58
2023/06/30 02:08:19;;;;;;;;;4.00;4.00;;;;;17.27;73.19;99584.56;5097459;28;8821;-57
2023/06/30 02:10:47;;;;;;;;;6.00;6.00;;;;;17.25;73.36;99572.28;5097873;28;8857;-58
2023/06/30 02:13:15;;;;;;;;;5.60;5.20;;;;;17.23;73.40;99582.38;5097391;28;8887;-56
2023/06/30 02:15:42;;;;;;;;;4.80;4.80;;;;;17.17;73.52;99581.19;5097315;28;8829;-56
2023/06/30 02:18:13;;;;;;;;;3.20;3.20;;;;;17.06;74.22;99576.19;5097527;28;8833;-56
2023/06/30 02:20:41;;;;;;;;;3.00;3.00;;;;;16.94;73.84;99591.00;5097297;28;8833;-56
2023/06/30 02:23:08;;;;;;;;;3.80;3.00;;;;;16.85;74.23;99599.28;5097537;28;8859;-56
2023/06/30 02:25:36;;;;;;;;;4.80;3.20;;;;;16.78;74.39;99591.03;5097611;28;8845;-55
2023/06/30 02:28:03;;;;;;;;;3.60;3.60;;;;;16.76;74.77;99594.91;5096753;28;8829;-56
2023/06/30 02:30:31;;;;;;;;;9.00;5.60;;;;;16.76;74.42;99593.06;5097764;28;8845;-56
2023/06/30 02:32:59;;;;;;;;;3.00;2.20;;;;;16.75;74.53;99598.59;5096848;28;8841;-56
2023/06/30 02:35:28;;;;;;;;;3.00;3.00;;;;;16.76;74.64;99598.44;5097027;28;9534;-56
2023/06/30 02:37:55;;;;;;;;;4.00;4.00;;;;;16.78;74.00;99604.47;5096051;28;8826;-55
2023/06/30 02:40:25;;;;;;;;;6.00;4.00;;;;;16.76;73.99;99595.75;5097313;28;8883;-56
2023/06/30 02:42:53;;;;;;;;;3.00;3.00;;;;;16.75;74.39;99607.53;5096894;28;8817;-56
2023/06/30 02:45:21;;;;;;;;;5.20;4.00;;;;;16.76;74.31;99601.13;5096922;28;8839;-56
2023/06/30 02:47:49;;;;;;;;;4.00;3.00;;;;;16.78;74.09;99603.66;5097107;28;8825;-56
2023/06/30 02:50:17;;;;;;;;;6.00;4.80;;;;;16.78;74.44;99609.03;5096814;28;8855;-56
2023/06/30 02:52:44;;;;;;;;;4.00;3.60;;;;;16.77;73.89;99594.72;5096928;28;8836;-56
2023/06/30 02:55:12;;;;;;;;;6.00;6.00;;;;;16.76;74.41;99598.44;5096999;28;8871;-56
2023/06/30 02:57:41;;;;;;;;;4.40;4.00;;;;;16.77;74.24;99601.94;5096652;28;8856;-56
2023/06/30 03:00:10;;;;;;;;;6.00;6.00;;;;;16.76;73.96;99605.66;5096504;28;8824;-56
2023/06/30 03:02:38;;;;;;;;;3.00;3.00;;;;;16.73;73.84;99604.16;5096596;28;8881;-56
2023/06/30 03:05:07;;;;;;;;;4.80;4.40;;;;;16.73;74.12;99606.84;5095792;28;8837;-56
2023/06/30 03:07:34;;;;;;;;;3.40;3.40;;;;;16.71;74.03;99611.53;5095136;28;8829;-56
2023/06/30 03:10:02;;;;;;;;;3.40;3.40;;;;;16.70;73.71;99615.25;5095562;28;8829;-56
2023/06/30 03:12:30;;;;;;;;;4.40;4.40;;;;;16.69;73.64;99616.25;5096052;28;8841;-56
2023/06/30 03:14:57;;;;;;;;;3.00;3.00;;;;;16.66;74.09;99616.59;5095167;28;8888;-56
2023/06/30 03:17:25;;;;;;;;;3.40;3.40;;;;;16.65;73.80;99617.59;5096328;28;8872;-56
2023/06/30 03:19:53;;;;;;;;;5.20;4.80;;;;;16.62;74.16;99615.25;5096090;28;8847;-56
2023/06/30 03:22:21;;;;;;;;;7.80;7.00;;;;;16.61;73.78;99615.41;5095993;28;8849;-56
2023/06/30 03:24:48;;;;;;;;;9.60;9.00;;;;;16.58;74.14;99611.22;5096010;28;9768;-56
2023/06/30 03:27:16;;;;;;;;;7.40;7.40;;;;;16.57;73.48;99612.22;5095958;28;8852;-55
2023/06/30 03:29:43;;;;;;;;;7.40;7.00;;;;;16.55;74.18;99600.78;5095922;28;8821;-56
2023/06/30 03:32:11;;;;;;;;;9.00;9.00;;;;;16.54;74.00;99606.31;5095958;28;9507;-56
2023/06/30 03:34:39;;;;;;;;;6.00;6.00;;;;;16.54;73.94;99614.41;5096452;28;8837;-56
2023/06/30 03:37:07;;;;;;;;;8.60;6.60;;;;;16.53;74.15;99604.66;5095088;28;8821;-56
2023/06/30 03:39:34;;;;;;;;;9.00;7.00;;;;;16.52;73.87;99609.22;5095971;28;8855;-56
2023/06/30 03:42:04;;;;;;;;;4.00;3.20;;;;;16.52;73.81;99617.28;5095847;28;8851;-56
2023/06/30 03:44:32;;;;;;;;;7.60;7.20;;;;;16.54;73.98;99619.78;5095096;28;8837;-56
2023/06/30 03:46:59;;;;;;;;;9.40;8.60;;;;;16.56;73.69;99620.47;5094707;28;8853;-55
2023/06/30 03:49:27;;;;;;;;;9.60;9.00;;;;;16.60;73.49;99621.78;5095023;28;8837;-57
2023/06/30 03:51:55;;;;;;;;;9.00;7.00;;;;;16.61;73.80;99627.00;5094347;28;8868;-56
2023/06/30 03:54:22;;;;;;;;;10.00;6.00;;;;;16.60;73.62;99617.28;5095536;28;8857;-55
2023/06/30 03:56:50;;;;;;;;;9.40;7.80;;;;;16.60;73.86;99616.41;5094329;28;8840;-56
2023/06/30 03:59:18;;;;;;;;;7.00;6.80;;;;;16.59;73.86;99612.91;5095604;28;8869;-56
2023/06/30 04:01:46;;;;;;;;;12.80;11.20;;;;;16.61;73.23;99607.34;5095443;28;8844;-57
2023/06/30 04:04:14;;;;;;;;;8.50;8.00;;;;;16.63;73.98;99614.22;5095594;28;8849;-55
2023/06/30 04:06:44;;;;;;;;;6.40;6.40;;;;;16.64;73.44;99613.22;5094470;28;8821;-55
2023/06/30 04:09:12;;;;;;;;;4.40;4.40;;;;;16.66;73.72;99613.06;5094642;28;8971;-56
2023/06/30 04:11:39;;;;;;;;;4.40;4.40;;;;;16.65;73.15;99606.84;5094869;28;9557;-56
2023/06/30 04:14:07;;;;;;;;;4.80;3.80;;;;;16.67;73.46;99609.38;5093850;28;8845;-56
2023/06/30 04:16:34;;;;;;;;;6.00;4.40;;;;;16.67;73.52;99607.53;5092919;28;8849;-56
2023/06/30 04:19:02;;;;;;;;;7.80;6.80;;;;;16.70;73.69;99617.13;5094455;28;8937;-56
2023/06/30 04:21:30;;;;;;;;;7.00;7.00;;;;;16.69;73.59;99615.41;5097314;28;8844;-55
2023/06/30 04:23:58;;;;;;;;;9.00;9.00;;;;;16.70;72.97;99606.34;5098437;28;8848;-56
2023/06/30 04:26:26;;;;;;;;;7.50;7.50;;;;;16.72;73.51;99615.09;5098062;28;8829;-55
2023/06/30 04:28:53;;;;;;;;;12.50;11.50;;;;;16.75;72.93;99606.66;5098458;28;8833;-56
2023/06/30 04:31:21;;;;;;;;;10.00;9.50;;;;;16.77;73.30;99612.72;5099695;28;8855;-56
2023/06/30 04:33:50;;;;;;;;;8.60;6.20;;;;;16.80;73.30;99613.22;5099163;28;8841;-56
2023/06/30 04:36:20;;;;;;;;;9.00;9.00;;;;;16.82;73.25;99616.59;5097687;28;8825;-56
2023/06/30 04:38:48;;;;;;;;;8.20;7.80;;;;;16.85;73.37;99610.88;5098527;28;8967;-56
2023/06/30 04:41:16;;;;;;;;;6.00;4.00;;;;;16.87;73.27;99614.22;5098444;28;8849;-56
2023/06/30 04:43:44;;;;;;;;;9.00;8.60;;;;;16.90;73.44;99615.72;5098816;28;8837;-56
2023/06/30 04:46:12;;;;;;;;;8.20;7.40;;;;;16.91;73.04;99618.25;5098410;28;8809;-56
2023/06/30 04:48:39;;;;;;;;;9.00;6.60;;;;;16.92;72.86;99625.31;5098296;28;9590;-56
2023/06/30 04:51:07;;;;;;;;;8.60;7.60;;;;;16.94;73.23;99625.97;5099385;28;8863;-57
2023/06/30 04:53:35;;;;;;;;;10.00;10.00;;;;;16.96;73.21;99631.19;5099332;28;8829;-56
2023/06/30 04:56:03;;;;;;;;;10.80;9.00;;;;;16.95;73.16;99622.28;5098337;28;8959;-55
2023/06/30 04:58:30;;;;;;;;;10.75;8.25;;;;;16.95;72.77;99627.66;5099240;28;8840;-55
2023/06/30 05:00:58;;;;;;;;;8.60;8.60;;;;;16.94;72.87;99625.97;5098903;28;8837;-56
2023/06/30 05:03:25;;;;;;;;;7.40;6.40;;;;;16.94;73.29;99625.97;5098227;28;8844;-56
2023/06/30 05:05:56;;;;;;;;;3.60;3.60;;;;;16.97;73.18;99622.97;5099216;28;8932;-56
2023/06/30 05:08:24;;;;;;;;;4.40;3.80;;;;;16.98;73.09;99624.66;5097942;28;8829;-56
2023/06/30 05:10:52;;;;;;;;;8.00;8.00;;;;;16.97;73.13;99620.28;5098455;28;8845;-56
2023/06/30 05:13:20;;;;;;;;;9.00;9.00;;;;;16.97;73.18;99622.97;5098497;28;8839;-56
2023/06/30 05:15:47;;;;;;;;;4.00;3.60;;;;;16.97;72.73;99622.97;5098389;28;8867;-57
2023/06/30 05:18:16;;;;;;;;;10.00;9.00;;;;;16.98;72.94;99627.34;5098157;28;8861;-56
2023/06/30 05:20:44;;;;;;;;;11.80;11.60;;;;;16.97;73.25;99639.09;5097598;28;8841;-55
2023/06/30 05:23:12;;;;;;;;;9.80;9.80;;;;;16.96;73.05;99629.38;5097472;28;8825;-57
2023/06/30 05:25:39;;;;;;;;;13.80;12.40;;;;;16.96;72.91;99633.88;5096969;28;9082;-56
2023/06/30 05:28:07;;;;;;;;;5.80;4.60;;;;;16.95;73.16;99638.41;5096958;28;8855;-56
2023/06/30 05:30:35;;;;;;;;;6.60;5.40;;;;;17.00;72.45;99624.47;5097350;28;8844;-56
2023/06/30 05:33:04;;;;;;;;;11.60;11.60;;;;;17.07;72.80;99625.44;5096961;28;8837;-56
2023/06/30 05:35:32;;;;;;;;;10.40;8.20;;;;;17.15;72.65;99630.84;5097935;28;8949;-56
2023/06/30 05:38:00;;;;;;;;;3.60;3.60;;;;;17.23;72.48;99615.50;5097520;28;8837;-56
2023/06/30 05:40:28;;;;;;;;;7.00;7.00;;;;;17.32;71.90;99621.72;5086054;28;9483;-56
2023/06/30 05:42:56;;;;;;;;;9.20;9.20;;;;;17.40;71.80;99617.16;5097368;28;8817;-55
2023/06/30 05:45:24;;;;;;;;;9.00;9.00;;;;;17.47;71.45;99612.75;5097464;28;8848;-56
2023/06/30 05:47:52;;;;;;;;;9.40;6.80;;;;;17.54;71.62;99619.13;5098148;28;8841;-56
2023/06/30 05:50:21;;;;;;;;;10.40;9.60;;;;;17.59;71.74;99618.63;5096440;28;8977;-56
2023/06/30 05:52:49;;;;;;;;;10.80;10.40;;;;;17.59;71.62;99616.78;5097647;28;8946;-56
2023/06/30 05:55:17;;;;;;;;;10.00;9.00;;;;;17.58;71.89;99619.63;5096603;28;8865;-56
2023/06/30 05:57:45;;;;;;;;;9.40;9.00;;;;;17.62;71.34;99623.66;5095116;28;8951;-56
2023/06/30 06:00:15;;;;;;;;;11.60;9.00;;;;;17.66;71.28;99617.75;5095917;28;8853;-56
2023/06/30 06:02:43;;;;;;;;;9.40;9.00;;;;;17.71;71.32;99630.69;5095935;28;8899;-56
2023/06/30 06:05:10;;;;;;;;;8.20;6.80;;;;;17.69;71.15;99633.56;5095864;28;8863;-58
2023/06/30 06:07:40;;;;;;;;;10.80;9.60;;;;;17.68;71.19;99631.88;5095397;28;8845;-56
2023/06/30 06:10:08;;;;;;;;;11.40;9.60;;;;;17.68;71.52;99625.66;5094523;28;8905;-55
2023/06/30 06:12:36;;;;;;;;;12.20;10.80;;;;;17.69;71.44;99632.72;5095317;28;8860;-57
2023/06/30 06:15:04;;;;;;;;;13.00;11.20;;;;;17.69;71.81;99633.56;5094880;28;8979;-57
2023/06/30 06:17:32;;;;;;;;;11.60;10.40;;;;;17.71;71.63;99630.69;5094225;28;8861;-56
2023/06/30 06:19:59;;;;;;;;;10.60;9.80;;;;;17.68;71.58;99639.13;5094960;28;8873;-55
2023/06/30 06:22:27;;;;;;;;;10.80;10.40;;;;;17.58;71.45;99643.88;5095920;28;9530;-57
2023/06/30 06:24:55;;;;;;;;;9.40;9.00;;;;;17.50;71.71;99650.13;5095778;28;8837;-56
2023/06/30 06:27:23;;;;;;;;;12.60;10.80;;;;;17.44;72.24;99642.75;5095173;28;8979;-56
2023/06/30 06:29:51;;;;;;;;;12.00;12.00;;;;;17.41;72.29;99640.41;5095805;28;8841;-56
2023/06/30 06:32:19;;;;;;;;;13.00;9.60;;;;;17.43;71.97;99637.53;5096273;28;9637;-58
2023/06/30 06:34:47;;;;;;;;;9.60;7.80;;;;;17.45;71.96;99639.03;5095634;28;8837;-58
2023/06/30 06:37:15;;;;;;;;;9.80;9.60;;;;;17.50;71.47;99639.38;5095672;28;8976;-56
2023/06/30 06:39:43;;;;;;;;;13.00;12.20;;;;;17.56;71.75;99637.81;5095099;28;8848;-55
2023/06/30 06:42:11;;;;;;;;;12.60;12.40;;;;;17.63;71.97;99645.03;5095531;28;9019;-56
2023/06/30 06:44:39;;;;;;;;;12.00;10.00;;;;;17.67;71.53;99651.75;5094537;28;8841;-56
2023/06/30 06:47:07;;;;;;;;;13.00;9.40;;;;;17.68;71.56;99652.59;5094921;28;8868;-56
2023/06/30 06:49:34;;;;;;;;;9.40;9.00;;;;;17.72;71.71;99648.53;5096105;28;8841;-56
2023/06/30 06:52:03;;;;;;;;;13.80;12.00;;;;;17.76;70.99;99652.56;5096195;28;8856;-56
2023/06/30 06:54:30;;;;;;;;;10.80;10.00;;;;;17.78;70.97;99651.34;5096403;28;8841;-56
2023/06/30 06:56:58;;;;;;;;;9.40;7.80;;;;;17.76;71.37;99644.50;5095873;28;8841;-56
2023/06/30 06:59:27;;;;;;;;;10.60;9.80;;;;;17.76;71.60;99648.00;5096501;28;8837;-56
2023/06/30 07:01:55;;;;;;;;;7.80;7.00;;;;;17.77;71.63;99644.28;5095897;28;8848;-56
2023/06/30 07:04:23;;;;;;;;;10.40;9.00;;;;;17.81;71.41;99642.94;5094223;28;8833;-56
2023/06/30 07:06:57;;;;;;;;;17.75;16.75;;;;;17.93;70.98;99646.91;5130066;27;13455;-57
2023/06/30 07:09:25;;;;;;;;;13.40;10.60;;;;;18.13;70.33;99639.25;5112215;28;8846;-58
2023/06/30 07:11:53;;;;;;;;;13.60;13.00;;;;;18.31;70.34;99640.69;5112414;28;8844;-57
2023/06/30 07:14:21;;;;;;;;;17.60;16.80;;;;;18.51;69.73;99644.59;5112611;28;8898;-57
2023/06/30 07:16:49;;;;;;;;;16.60;14.00;;;;;18.68;69.29;99653.41;5112162;28;8827;-57
2023/06/30 07:19:17;;;;;;;;;15.40;15.00;;;;;18.88;68.73;99650.03;5112704;28;8839;-58
2023/06/30 07:21:45;;;;;;;;;16.80;15.00;;;;;19.05;68.86;99648.84;5112605;28;8947;-57
2023/06/30 07:24:14;;;;;;;;;16.60;15.20;;;;;19.17;68.36;99647.41;5112462;28;8861;-58
2023/06/30 07:26:42;;;;;;;;;9.00;8.20;;;;;19.20;68.84;99649.75;5112002;28;8820;-56
2023/06/30 07:29:12;;;;;;;;;14.60;11.60;;;;;19.23;68.54;99654.81;5111849;28;8928;-57
2023/06/30 07:31:39;;;;;;;;;12.40;10.80;;;;;19.29;68.17;99650.53;5111887;28;8943;-57
2023/06/30 07:34:07;;;;;;;;;12.20;9.00;;;;;19.42;68.52;99648.03;5111935;28;8848;-57
2023/06/30 07:36:36;;;;;;;;;12.60;12.20;;;;;19.56;67.65;99645.31;5111990;28;8816;-58
2023/06/30 07:39:03;;;;;;;;;11.20;10.40;;;;;19.64;67.91;99652.50;5112082;28;8954;-59
2023/06/30 07:41:34;;;;;;;;;9.20;8.20;;;;;19.61;68.07;99655.56;5110478;28;8827;-58
2023/06/30 07:44:03;;;;;;;;;14.00;12.60;;;;;19.48;67.93;99653.50;5111612;28;8852;-58
2023/06/30 07:46:31;;;;;;;;;11.40;10.80;;;;;19.33;68.77;99652.66;5111146;28;8916;-59
2023/06/30 07:48:59;;;;;;;;;14.60;14.60;;;;;19.12;68.86;99660.59;5111268;28;8845;-60
2023/06/30 07:51:27;;;;;;;;;4.80;3.20;;;;;18.94;69.13;99660.09;5110596;28;8850;-59
2023/06/30 07:53:55;;;;;;;;;10.80;10.00;;;;;18.80;70.08;99658.19;5110873;28;8847;-58
2023/06/30 07:56:23;;;;;;;;;8.80;8.20;;;;;18.76;70.02;99651.47;5110647;28;8851;-60
2023/06/30 07:58:51;;;;;;;;;9.20;7.40;;;;;18.82;70.10;99661.53;5110959;28;8850;-59
2023/06/30 08:01:19;;;;;;;;;6.00;3.00;;;;;18.88;69.74;99654.59;5111947;28;8824;-60
2023/06/30 08:03:48;;;;;;;;;6.80;6.40;;;;;18.93;69.40;99663.81;5112148;28;8871;-59
2023/06/30 08:06:16;;;;;;;;;7.00;6.60;;;;;18.98;69.15;99666.78;5111696;28;9000;-57
2023/06/30 08:08:44;;;;;;;;;7.00;7.00;;;;;19.02;69.55;99664.56;5111230;28;8806;-58
2023/06/30 08:11:12;;;;;;;;;7.60;7.60;;;;;19.04;69.07;99663.38;5111669;28;8848;-59
2023/06/30 08:13:40;;;;;;;;;4.40;4.40;;;;;19.08;68.94;99669.25;5111755;28;8992;-60
2023/06/30 08:16:08;;;;;;;;;6.40;6.40;;;;;19.13;68.98;99670.38;5110851;28;9050;-59
2023/06/30 08:18:37;;;;;;;;;6.00;6.00;;;;;19.18;68.83;99667.16;5097667;28;8818;-58
2023/06/30 08:21:16;;;;;;;;;5.20;4.00;;;;;19.25;68.09;99673.50;5097626;28;8821;-58
2023/06/30 08:23:45;;;;;;;;;4.00;4.00;;;;;19.31;68.29;99668.22;5097562;28;8838;-57
2023/06/30 08:26:15;;;;;;;;;5.40;4.60;;;;;19.36;67.86;99667.66;5097934;28;8834;-57
2023/06/30 08:28:43;;;;;;;;;6.00;5.00;;;;;19.41;67.49;99679.59;5097504;28;8899;-60
2023/06/30 08:31:10;;;;;;;;;3.60;3.60;;;;;19.47;67.44;99683.41;5096154;28;8865;-58
2023/06/30 08:33:38;;;;;;;;;3.00;3.00;;;;;19.51;67.51;99685.56;5096731;28;8911;-57
2023/06/30 08:36:09;;;;;;;;;3.00;3.00;;;;;19.47;67.18;99684.25;5096035;28;8865;-60
2023/06/30 08:38:37;;;;;;;;;2.00;2.00;;;;;19.46;67.46;99679.03;5096790;28;10350;-60
2023/06/30 08:41:05;;;;;;;;;3.00;3.00;;;;;19.49;67.48;99673.28;5097158;28;9530;-60
2023/06/30 08:43:33;;;;;;;;;3.00;3.00;;;;;19.62;66.90;99681.56;5096863;28;8826;-60
2023/06/30 08:46:02;;;;;;;;;3.80;3.80;;;;;19.79;66.46;99674.97;5096059;28;8865;-60
2023/06/30 08:48:32;;;;;;;;;4.40;4.40;;;;;19.93;66.32;99679.50;5096054;28;8830;-59
2023/06/30 08:51:02;;;;;;;;;4.00;3.80;;;;;20.07;65.80;99676.81;5095849;28;8826;-60
2023/06/30 08:53:29;;;;;;;;;5.60;4.00;;;;;20.17;65.35;99671.94;5096765;28;8830;-60
2023/06/30 08:55:57;;;;;;;;;3.60;2.20;;;;;20.23;65.43;99671.19;5095679;28;8822;-60
2023/06/30 08:58:25;;;;;;;;;1.80;1.80;;;;;20.36;64.86;99660.53;5096351;28;8810;-60
2023/06/30 09:00:53;;;;;;;;;4.00;4.00;;;;;20.40;65.01;99661.00;5096599;28;8825;-60
2023/06/30 09:03:22;;;;;;;;;2.20;1.60;;;;;20.45;64.73;99658.53;5096998;28;8906;-60
2023/06/30 09:05:51;;;;;;;;;2.20;2.20;;;;;20.45;64.33;99650.41;5096670;28;8864;-61
2023/06/30 09:08:19;;;;;;;;;2.00;2.00;;;;;20.46;64.32;99647.53;5096603;28;8830;-62
2023/06/30 09:10:47;;;;;;;;;4.00;4.00;;;;;20.47;64.64;99649.19;5096481;28;8956;-60
2023/06/30 09:13:15;;;;;;;;;4.60;4.00;;;;;20.51;64.04;99646.94;5096206;28;8826;-60
2023/06/30 09:15:43;;;;;;;;;2.00;2.00;;;;;20.56;64.23;99645.34;5096135;28;8822;-60
2023/06/30 09:18:12;;;;;;;;;4.60;4.00;;;;;20.77;64.03;99649.94;5096254;28;8861;-59
2023/06/30 09:20:40;;;;;;;;;4.00;4.00;;;;;21.00;62.89;99648.72;5095941;28;8826;-58
2023/06/30 09:23:08;;;;;;;;;2.80;2.80;;;;;21.17;62.91;99650.94;5095392;28;8836;-58
2023/06/30 09:25:36;;;;;;;;;3.20;2.40;;;;;21.30;62.10;99650.19;5094469;28;8926;-60
2023/06/30 09:28:05;;;;;;;;;4.80;4.00;;;;;21.24;62.28;99642.84;5093439;28;8868;-57
2023/06/30 09:30:33;;;;;;;;;4.00;4.00;;;;;21.15;62.83;99649.47;5094378;28;9484;-60
2023/06/30 09:33:01;;;;;;;;;2.00;2.00;;;;;21.27;62.13;99645.19;5094405;28;8845;-60
2023/06/30 09:35:29;;;;;;;;;1.60;1.60;;;;;21.41;62.09;99645.06;5095116;28;8850;-60
2023/06/30 09:37:57;;;;;;;;;4.00;3.60;;;;;21.59;61.51;99644.56;5095504;28;8916;-59
2023/06/30 09:40:26;;;;;;;;;1.00;1.00;;;;;21.75;61.37;99639.69;5095654;28;8833;-60
2023/06/30 09:42:54;;;;;;;;;3.20;2.40;;;;;21.63;61.40;99640.44;5094681;28;8961;-60
2023/06/30 09:45:22;;;;;;;;;2.00;2.00;;;;;21.59;61.21;99644.56;5094692;28;8829;-59
2023/06/30 09:47:50;;;;;;;;;2.00;2.00;;;;;21.71;60.99;99638.41;5094868;28;8911;-60
2023/06/30 09:50:18;;;;;;;;;1.00;1.00;;;;;21.87;60.65;99648.09;5095039;28;8826;-59
2023/06/30 09:52:46;;;;;;;;;2.00;2.00;;;;;21.99;60.24;99641.91;5094954;28;8848;-60
2023/06/30 09:55:15;;;;;;;;;2.20;1.80;;;;;22.14;59.63;99639.88;5094038;28;8915;-58
2023/06/30 09:57:43;;;;;;;;;4.40;2.80;;;;;22.37;59.25;99634.09;5095452;28;8857;-60
2023/06/30 10:00:11;;;;;;;;;1.60;1.60;;;;;22.36;59.36;99637.84;5095182;28;8914;-60
2023/06/30 10:03:00;;;;;;;;;3.20;3.20;;;;;22.30;59.46;99634.09;5094717;28;8978;-59
2023/06/30 10:05:29;;;;;;;;;2.00;2.00;;;;;22.30;59.24;99634.09;5093483;28;8846;-60
2023/06/30 10:07:56;;;;;;;;;4.00;3.60;;;;;22.46;58.92;99631.03;5093516;28;8972;-59
2023/06/30 10:10:24;;;;;;;;;4.40;4.40;;;;;22.67;58.26;99640.88;5093034;28;8936;-58
2023/06/30 10:12:53;;;;;;;;;5.20;5.00;;;;;22.81;57.53;99631.69;5093500;28;8818;-60
2023/06/30 10:15:22;;;;;;;;;9.40;9.40;;;;;22.61;58.40;99636.28;5094386;28;8826;-60
2023/06/30 10:17:50;;;;;;;;;5.80;5.20;;;;;22.54;58.01;99630.81;5094947;28;9507;-60
2023/06/30 10:20:19;;;;;;;;;2.00;2.00;;;;;23.02;57.16;99634.22;5094691;28;8834;-60
2023/06/30 10:23:00;;;;;;;;;4.00;4.00;;;;;23.62;56.05;99636.72;5093726;28;8857;-60
2023/06/30 10:25:29;;;;;;;;;2.00;2.00;;;;;24.18;54.97;99635.06;5093294;28;8834;-58
2023/06/30 10:27:57;;;;;;;;;4.60;4.60;;;;;24.76;54.10;99625.78;5093749;28;8876;-60
2023/06/30 10:30:25;;;;;;;;;1.60;1.60;;;;;25.38;52.25;99625.69;5093967;28;8922;-59
2023/06/30 10:32:53;;;;;;;;;2.20;2.20;;;;;25.89;51.94;99625.16;5093649;28;8857;-60
2023/06/30 10:35:21;;;;;;;;;2.00;2.00;;;;;26.43;50.38;99630.56;5093857;28;8838;-60
2023/06/30 10:37:49;;;;;;;;;2.40;2.00;;;;;26.37;50.64;99631.50;5093889;28;8825;-61
2023/06/30 10:40:19;;;;;;;;;3.00;2.40;;;;;26.01;52.33;99622.50;5094374;28;8826;-59
2023/06/30 10:42:48;;;;;;;;;5.00;5.00;;;;;25.80;52.05;99614.78;5094860;28;8926;-60
2023/06/30 10:45:18;;;;;;;;;2.00;2.00;;;;;26.03;51.85;99615.75;5094564;28;8822;-59
2023/06/30 10:47:46;;;;;;;;;2.80;2.80;;;;;26.45;51.44;99614.78;5094675;28;8830;-60
2023/06/30 10:50:14;;;;;;;;;2.00;2.00;;;;;26.37;51.75;99612.38;5095001;28;8852;-60
2023/06/30 10:52:43;;;;;;;;;2.60;2.60;;;;;26.81;50.63;99617.44;5094503;28;8830;-60
2023/06/30 10:55:11;;;;;;;;;5.20;3.60;;;;;27.29;49.75;99609.94;5092953;28;8830;-60
2023/06/30 10:57:39;;;;;;;;;2.20;2.20;;;;;27.63;49.52;99605.50;5094207;28;8822;-60
2023/06/30 11:00:07;;;;;;;;;2.00;2.00;;;;;27.69;49.81;99608.13;5094365;28;8838;-61
2023/06/30 11:02:35;;;;;;;;;2.00;2.00;;;;;27.20;50.04;99614.09;5094691;28;8818;-60
2023/06/30 11:05:06;;;;;;;;;2.00;2.00;;;;;26.65;51.20;99604.41;5094461;28;8858;-59
2023/06/30 11:07:34;;;;;;;;;2.80;2.80;;;;;26.96;50.79;99609.63;5094394;28;8957;-59
2023/06/30 11:10:02;;;;;;;;;1.80;1.80;;;;;27.35;50.20;99597.19;5094239;28;8841;-60
2023/06/30 11:12:34;;;;;;;;;1.00;1.00;;;;;27.85;48.78;99596.44;5094406;28;8852;-61
2023/06/30 11:15:03;;;;;;;;;1.00;1.00;;;;;28.07;47.54;99594.72;5093795;28;8830;-61
2023/06/30 11:17:32;;;;;;;;;2.00;2.00;;;;;28.44;46.87;99578.78;5093465;28;8822;-61
2023/06/30 11:20:00;;;;;;;;;1.80;1.80;;;;;28.68;46.96;99583.88;5092510;28;8838;-61
2023/06/30 11:22:29;;;;;;;;;2.00;2.00;;;;;28.80;46.61;99590.16;5092050;28;8822;-60
2023/06/30 11:24:57;;;;;;;;;2.00;2.00;;;;;28.95;45.79;99582.22;5090769;28;8984;-60
2023/06/30 11:27:26;;;;;;;;;2.00;2.00;;;;;29.18;45.27;99582.03;5090997;28;8834;-60
2023/06/30 11:29:54;;;;;;;;;1.20;1.20;;;;;29.55;45.40;99579.59;5090466;28;8861;-58
2023/06/30 11:32:22;;;;;;;;;2.60;2.60;;;;;29.49;45.22;99584.16;5089754;28;8834;-60
2023/06/30 11:34:50;;;;;;;;;2.20;2.00;;;;;29.69;44.90;99584.50;5091505;28;8850;-60
2023/06/30 11:37:18;;;;;;;;;3.40;3.40;;;;;29.94;44.37;99584.81;5092370;28;8841;-61
2023/06/30 11:39:47;;;;;;;;;3.00;2.40;;;;;29.96;44.19;99590.88;5092953;28;8841;-61
2023/06/30 11:42:16;;;;;;;;;1.60;1.00;;;;;29.83;44.64;99595.94;5093002;28;8838;-61